Time;durP1;ratioP1;P1;durP2;ratioP2;P2;SDS_P1;SDS_P2;PMS_P1;PMS_P2;Temp;Humidity;BMP_temperature;BMP_pressure;BME280_temperature;BME280_humidity;BME280_pressure;Samples;Min_cycle;Max_cycle;Signal;HPM_P1;HPM_P2
2023/06/13 00:00:37;;;;;;;7.63;5.35;;;;;;;;;;5014747;28;20381;-78
2023/06/13 00:03:04;;;;;;;6.65;5.47;;;;;;;;;;5015229;28;20128;-78
2023/06/13 00:05:31;;;;;;;8.88;5.47;;;;;;;;;;5014853;28;20038;-78
2023/06/13 00:07:57;;;;;;;8.35;5.82;;;;;;;;;;5016959;28;20049;-78
2023/06/13 00:10:23;;;;;;;6.75;5.50;;;;;;;;;;5017739;28;20046;-78
2023/06/13 00:12:51;;;;;;;11.55;5.93;;;;;;;;;;5013033;28;20053;-78
2023/06/13 00:15:18;;;;;;;8.73;5.75;;;;;;;;;;5014622;28;20046;-78
2023/06/13 00:17:45;;;;;;;11.00;5.75;;;;;;;;;;4998100;28;20410;-78
2023/06/13 00:20:12;;;;;;;7.15;5.60;;;;;;;;;;5014344;28;20065;-78
2023/06/13 00:22:38;;;;;;;7.05;5.00;;;;;;;;;;5013898;28;20038;-78
2023/06/13 00:25:04;;;;;;;7.03;5.20;;;;;;;;;;5013832;28;20057;-78
2023/06/13 00:27:32;;;;;;;7.53;5.30;;;;;;;;;;5011937;28;20581;-78
2023/06/13 00:29:58;;;;;;;9.30;6.00;;;;;;;;;;5010020;28;20046;-78
2023/06/13 00:32:24;;;;;;;8.57;5.20;;;;;;;;;;5013519;28;20038;-78
2023/06/13 00:34:50;;;;;;;7.38;5.68;;;;;;;;;;5013774;28;20377;-78
2023/06/13 00:37:16;;;;;;;8.65;6.10;;;;;;;;;;5014211;28;20038;-78
2023/06/13 00:39:43;;;;;;;7.72;5.80;;;;;;;;;;5023190;28;20514;-78
2023/06/13 00:42:10;;;;;;;10.93;6.05;;;;;;;;;;5014147;28;20050;-78
2023/06/13 00:44:36;;;;;;;8.73;5.70;;;;;;;;;;5013755;28;20511;-78
2023/06/13 00:47:03;;;;;;;6.47;5.18;;;;;;;;;;5013659;28;20041;-78
2023/06/13 00:49:30;;;;;;;6.63;5.03;;;;;;;;;;5013087;28;20108;-78
2023/06/13 00:51:58;;;;;;;7.13;5.43;;;;;;;;;;5014438;28;20124;-78
2023/06/13 00:54:25;;;;;;;7.88;5.88;;;;;;;;;;5012675;28;20038;-78
2023/06/13 00:56:51;;;;;;;8.07;5.18;;;;;;;;;;5013623;28;20046;-78
2023/06/13 00:59:17;;;;;;;7.00;5.05;;;;;;;;;;5013127;28;20407;-78
2023/06/13 01:01:43;;;;;;;8.57;5.32;;;;;;;;;;5010062;28;20192;-78
2023/06/13 01:04:13;;;;;;;10.25;5.03;;;;;;;;;;5013375;28;20038;-78
2023/06/13 01:06:44;;;;;;;6.82;5.07;;;;;;;;;;5004375;28;20046;-78
2023/06/13 01:09:11;;;;;;;5.70;5.00;;;;;;;;;;5013550;28;20058;-78
2023/06/13 01:11:56;;;;;;;8.55;4.97;;;;;;;;;;5013446;28;20100;-78
2023/06/13 01:14:30;;;;;;;6.30;5.10;;;;;;;;;;5012423;28;20172;-78
2023/06/13 01:17:03;;;;;;;7.47;4.80;;;;;;;;;;5011557;28;20092;-78
2023/06/13 01:19:38;;;;;;;7.35;4.90;;;;;;;;;;5008189;28;20188;-78
2023/06/13 01:22:07;;;;;;;6.68;5.13;;;;;;;;;;4995912;28;20057;-78
2023/06/13 01:24:38;;;;;;;7.13;4.97;;;;;;;;;;5025750;28;20120;-78
2023/06/13 01:27:05;;;;;;;10.00;5.10;;;;;;;;;;5021291;28;20377;-78
2023/06/13 01:29:34;;;;;;;6.15;4.68;;;;;;;;;;5004923;28;20054;-78
2023/06/13 01:32:00;;;;;;;5.47;4.70;;;;;;;;;;5005604;28;20045;-78
2023/06/13 01:34:26;;;;;;;7.05;4.68;;;;;;;;;;5030783;28;20054;-78
2023/06/13 01:36:52;;;;;;;7.22;5.28;;;;;;;;;;5013542;28;20046;-78
2023/06/13 01:39:19;;;;;;;5.65;4.35;;;;;;;;;;5013420;28;20057;-78
2023/06/13 01:41:45;;;;;;;6.32;4.55;;;;;;;;;;5013014;28;20085;-78
2023/06/13 01:44:12;;;;;;;5.47;4.40;;;;;;;;;;5012637;28;20140;-78
2023/06/13 01:46:57;;;;;;;5.05;4.53;;;;;;;;;;5018556;28;20076;-78
2023/06/13 01:49:29;;;;;;;7.05;4.80;;;;;;;;;;5032845;28;20478;-78
2023/06/13 01:51:55;;;;;;;6.38;4.68;;;;;;;;;;5027768;28;20075;-78
2023/06/13 01:54:23;;;;;;;9.57;4.70;;;;;;;;;;5013400;28;20129;-78
2023/06/13 01:56:56;;;;;;;6.30;4.85;;;;;;;;;;5011244;28;20435;-78
2023/06/13 01:59:25;;;;;;;8.32;4.63;;;;;;;;;;5011189;28;20031;-78
2023/06/13 02:01:51;;;;;;;6.50;4.70;;;;;;;;;;5013318;28;20132;-78
2023/06/13 02:04:17;;;;;;;7.32;4.95;;;;;;;;;;5013732;28;20085;-78
2023/06/13 02:06:43;;;;;;;7.53;4.70;;;;;;;;;;5013284;28;20057;-78
2023/06/13 02:09:10;;;;;;;7.22;5.38;;;;;;;;;;5013114;28;20049;-78
2023/06/13 02:11:36;;;;;;;6.45;4.85;;;;;;;;;;5012402;28;20054;-78
2023/06/13 02:14:02;;;;;;;6.47;4.70;;;;;;;;;;5012929;28;20048;-77
2023/06/13 02:16:30;;;;;;;7.95;4.80;;;;;;;;;;5011725;28;20133;-77
2023/06/13 02:18:59;;;;;;;6.82;4.90;;;;;;;;;;5012457;28;20125;-77
2023/06/13 02:21:25;;;;;;;7.80;4.93;;;;;;;;;;5012127;28;20491;-77
2023/06/13 02:23:51;;;;;;;9.02;5.15;;;;;;;;;;5012809;28;20100;-77
2023/06/13 02:26:19;;;;;;;5.97;4.97;;;;;;;;;;5011580;28;20046;-77
2023/06/13 02:28:45;;;;;;;6.00;4.78;;;;;;;;;;4998230;28;20047;-77
2023/06/13 02:31:11;;;;;;;7.50;5.10;;;;;;;;;;4995723;28;20053;-77
2023/06/13 02:33:40;;;;;;;5.57;4.90;;;;;;;;;;5011649;28;20046;-77
2023/06/13 02:36:06;;;;;;;6.40;4.78;;;;;;;;;;5011954;28;20149;-77
2023/06/13 02:38:32;;;;;;;7.47;5.05;;;;;;;;;;5012514;28;20052;-77
2023/06/13 02:40:59;;;;;;;8.13;5.10;;;;;;;;;;5004501;28;20053;-77
2023/06/13 02:43:25;;;;;;;6.95;5.20;;;;;;;;;;5027693;28;20046;-77
2023/06/13 02:45:52;;;;;;;8.68;5.28;;;;;;;;;;4997452;28;20499;-77
2023/06/13 02:48:20;;;;;;;8.30;5.50;;;;;;;;;;5012164;28;20077;-77
2023/06/13 02:50:46;;;;;;;6.90;5.18;;;;;;;;;;5012482;28;20081;-77
2023/06/13 02:53:12;;;;;;;7.18;5.22;;;;;;;;;;5011076;28;20033;-77
2023/06/13 02:55:38;;;;;;;7.78;5.90;;;;;;;;;;5008570;28;20038;-77
2023/06/13 02:58:04;;;;;;;8.52;5.40;;;;;;;;;;5005868;28;20049;-77
2023/06/13 03:00:30;;;;;;;8.57;5.53;;;;;;;;;;5012477;28;20096;-77
2023/06/13 03:03:03;;;;;;;7.88;5.63;;;;;;;;;;5012744;28;20038;-77
2023/06/13 03:05:30;;;;;;;10.20;5.97;;;;;;;;;;5017353;28;20065;-77
2023/06/13 03:07:59;;;;;;;8.23;5.60;;;;;;;;;;5016109;28;20107;-77
2023/06/13 03:10:25;;;;;;;9.88;6.18;;;;;;;;;;5012895;28;20054;-77
2023/06/13 03:12:51;;;;;;;6.38;5.65;;;;;;;;;;5011709;28;20045;-77
2023/06/13 03:15:17;;;;;;;10.55;5.65;;;;;;;;;;5011299;28;20404;-77
2023/06/13 03:17:43;;;;;;;6.90;5.72;;;;;;;;;;5015184;28;20054;-77
2023/06/13 03:20:10;;;;;;;8.98;6.30;;;;;;;;;;5014500;28;20389;-77
2023/06/13 03:22:36;;;;;;;7.82;5.47;;;;;;;;;;5014805;28;20049;-77
2023/06/13 03:25:05;;;;;;;6.97;5.70;;;;;;;;;;5012020;28;20400;-77
2023/06/13 03:27:32;;;;;;;7.97;5.90;;;;;;;;;;5005420;28;20270;-77
2023/06/13 03:29:58;;;;;;;9.35;5.47;;;;;;;;;;5011191;28;20042;-77
2023/06/13 03:32:24;;;;;;;8.50;5.75;;;;;;;;;;5014463;28;20141;-77
2023/06/13 03:34:52;;;;;;;8.38;5.57;;;;;;;;;;5015575;28;20046;-78
2023/06/13 03:37:19;;;;;;;7.38;5.55;;;;;;;;;;5015631;28;20049;-78
2023/06/13 03:39:45;;;;;;;6.35;5.40;;;;;;;;;;5029367;28;20049;-78
2023/06/13 03:42:11;;;;;;;8.52;5.50;;;;;;;;;;5035065;28;20052;-78
2023/06/13 03:44:37;;;;;;;8.43;5.82;;;;;;;;;;5034930;28;20419;-77
2023/06/13 03:47:03;;;;;;;7.28;5.78;;;;;;;;;;5033230;28;20045;-77
2023/06/13 03:49:29;;;;;;;9.05;6.03;;;;;;;;;;5034996;28;20529;-77
2023/06/13 03:51:55;;;;;;;7.50;5.68;;;;;;;;;;5021319;28;20057;-77
2023/06/13 03:54:22;;;;;;;7.50;6.05;;;;;;;;;;5014974;28;20562;-77
2023/06/13 03:56:48;;;;;;;7.95;5.70;;;;;;;;;;5014844;28;20053;-77
2023/06/13 03:59:14;;;;;;;7.18;5.50;;;;;;;;;;5014802;28;20488;-77
2023/06/13 04:01:41;;;;;;;8.70;5.40;;;;;;;;;;5019766;28;20078;-77
2023/06/13 04:04:08;;;;;;;6.45;5.30;;;;;;;;;;5034701;28;20443;-77
2023/06/13 04:06:34;;;;;;;7.30;5.38;;;;;;;;;;5016850;28;20084;-77
2023/06/13 04:09:03;;;;;;;8.93;5.82;;;;;;;;;;5019853;28;20046;-77
2023/06/13 04:11:29;;;;;;;7.82;5.20;;;;;;;;;;5014541;28;20057;-77
2023/06/13 04:13:55;;;;;;;6.40;5.20;;;;;;;;;;5011027;28;20538;-77
2023/06/13 04:16:21;;;;;;;6.78;5.63;;;;;;;;;;5007321;28;20043;-77
2023/06/13 04:18:47;;;;;;;6.43;5.00;;;;;;;;;;5020566;28;20053;-77
2023/06/13 04:21:14;;;;;;;8.27;5.10;;;;;;;;;;5011238;28;20038;-77
2023/06/13 04:23:41;;;;;;;6.70;4.80;;;;;;;;;;5009439;28;20411;-77
2023/06/13 04:26:07;;;;;;;8.88;5.25;;;;;;;;;;5009081;28;20038;-77
2023/06/13 04:28:35;;;;;;;6.18;5.15;;;;;;;;;;4998874;28;20046;-77
2023/06/13 04:31:03;;;;;;;7.65;5.10;;;;;;;;;;5016731;28;20042;-77
2023/06/13 04:33:29;;;;;;;7.68;5.50;;;;;;;;;;5009540;28;20054;-77
2023/06/13 04:36:03;;;;;;;7.13;5.38;;;;;;;;;;5012124;28;20118;-77
2023/06/13 04:38:29;;;;;;;8.45;5.50;;;;;;;;;;5013789;28;20508;-77
2023/06/13 04:40:56;;;;;;;6.50;5.32;;;;;;;;;;5013625;28;20052;-77
2023/06/13 04:43:23;;;;;;;6.72;4.93;;;;;;;;;;5013541;28;20046;-77
2023/06/13 04:45:49;;;;;;;5.53;4.88;;;;;;;;;;5004340;28;20092;-77
2023/06/13 04:48:15;;;;;;;7.13;5.32;;;;;;;;;;5020512;28;20077;-77
2023/06/13 04:50:44;;;;;;;8.18;5.30;;;;;;;;;;5012842;28;20050;-77
2023/06/13 04:53:16;;;;;;;6.40;5.00;;;;;;;;;;5012560;28;20045;-78
2023/06/13 04:55:42;;;;;;;6.78;5.20;;;;;;;;;;5014075;28;20046;-78
2023/06/13 04:58:08;;;;;;;9.98;5.22;;;;;;;;;;5019160;28;20073;-79
2023/06/13 05:00:34;;;;;;;6.65;5.43;;;;;;;;;;5015104;28;20038;-78
2023/06/13 05:03:01;;;;;;;7.38;5.38;;;;;;;;;;5030859;28;20042;-78
2023/06/13 05:05:28;;;;;;;8.63;5.10;;;;;;;;;;5014377;28;20046;-78
2023/06/13 05:07:57;;;;;;;7.32;4.90;;;;;;;;;;5024727;28;20488;-78
2023/06/13 05:10:24;;;;;;;5.80;5.20;;;;;;;;;;4999805;28;20126;-78
2023/06/13 05:12:50;;;;;;;6.47;5.00;;;;;;;;;;5010547;28;20029;-78
2023/06/13 05:15:18;;;;;;;6.53;5.05;;;;;;;;;;5011869;28;20042;-78
2023/06/13 05:17:54;;;;;;;6.68;4.70;;;;;;;;;;5013465;28;20099;-78
2023/06/13 05:20:27;;;;;;;6.28;4.78;;;;;;;;;;5023150;28;20477;-78
2023/06/13 05:22:54;;;;;;;5.43;4.40;;;;;;;;;;5013582;28;20050;-78
2023/06/13 05:25:20;;;;;;;7.38;4.85;;;;;;;;;;5012746;28;20104;-78
2023/06/13 05:27:47;;;;;;;5.30;4.60;;;;;;;;;;5009411;28;20385;-78
2023/06/13 05:30:13;;;;;;;7.70;4.75;;;;;;;;;;5007543;28;20033;-81
2023/06/13 05:32:40;;;;;;;7.25;4.65;;;;;;;;;;5012292;28;20204;-78
2023/06/13 05:35:10;;;;;;;5.10;4.55;;;;;;;;;;5017712;28;20048;-78
2023/06/13 05:37:39;;;;;;;6.20;5.03;;;;;;;;;;5023746;28;20042;-78
2023/06/13 05:40:05;;;;;;;8.30;4.78;;;;;;;;;;5032829;28;20128;-78
2023/06/13 05:42:34;;;;;;;6.32;4.35;;;;;;;;;;5025168;28;20057;-78
2023/06/13 05:45:01;;;;;;;5.03;4.18;;;;;;;;;;5013880;28;20484;-78
2023/06/13 05:47:27;;;;;;;6.65;3.88;;;;;;;;;;5015014;28;20133;-82
2023/06/13 05:49:53;;;;;;;5.78;4.20;;;;;;;;;;5013416;28;20141;-78
2023/06/13 05:52:19;;;;;;;6.82;4.10;;;;;;;;;;5015065;28;20053;-78
2023/06/13 05:54:46;;;;;;;6.90;4.07;;;;;;;;;;5006780;28;20063;-78
2023/06/13 05:57:12;;;;;;;11.82;4.55;;;;;;;;;;4994090;28;20112;-78
2023/06/13 05:59:42;;;;;;;4.88;3.92;;;;;;;;;;4996629;28;20073;-78
2023/06/13 06:02:09;;;;;;;8.32;3.97;;;;;;;;;;4996782;28;20054;-78
2023/06/13 06:04:35;;;;;;;8.32;4.15;;;;;;;;;;5017318;28;20084;-79
2023/06/13 06:07:02;;;;;;;4.90;3.90;;;;;;;;;;5038468;28;20044;-79
2023/06/13 06:09:28;;;;;;;8.23;3.80;;;;;;;;;;5029219;28;20046;-80
2023/06/13 06:11:54;;;;;;;5.22;4.00;;;;;;;;;;5027751;28;20053;-79
2023/06/13 06:14:20;;;;;;;4.47;4.03;;;;;;;;;;5028487;28;20038;-79
2023/06/13 06:16:46;;;;;;;7.68;3.75;;;;;;;;;;5025504;28;20049;-79
2023/06/13 06:19:13;;;;;;;6.00;3.92;;;;;;;;;;5017639;28;20053;-79
2023/06/13 06:21:39;;;;;;;6.15;3.83;;;;;;;;;;5018831;28;20049;-79
2023/06/13 06:24:06;;;;;;;5.38;3.45;;;;;;;;;;5015722;28;20057;-79
2023/06/13 06:26:33;;;;;;;4.30;3.55;;;;;;;;;;5020655;28;20052;-79
2023/06/13 06:28:59;;;;;;;5.88;3.40;;;;;;;;;;5021893;28;20125;-79
2023/06/13 06:31:27;;;;;;;4.95;3.50;;;;;;;;;;5022442;28;20046;-79
2023/06/13 06:33:53;;;;;;;8.02;3.60;;;;;;;;;;5024144;28;20121;-79
2023/06/13 06:36:22;;;;;;;5.28;3.80;;;;;;;;;;5022093;28;20125;-79
2023/06/13 06:38:49;;;;;;;3.92;3.30;;;;;;;;;;5011141;28;20081;-79
2023/06/13 06:41:16;;;;;;;6.20;3.30;;;;;;;;;;5018182;28;20053;-80
2023/06/13 06:43:42;;;;;;;4.68;3.42;;;;;;;;;;5010759;28;20085;-82
2023/06/13 06:46:09;;;;;;;5.18;3.33;;;;;;;;;;5012450;28;20128;-82
2023/06/13 06:48:35;;;;;;;4.20;3.50;;;;;;;;;;5016096;28;20072;-82
2023/06/13 06:51:01;;;;;;;5.97;3.53;;;;;;;;;;5025902;28;20046;-81
2023/06/13 06:53:27;;;;;;;4.38;3.33;;;;;;;;;;5047913;28;20148;-81
2023/06/13 06:55:53;;;;;;;4.95;3.55;;;;;;;;;;5055093;28;20120;-81
2023/06/13 06:58:19;;;;;;;5.07;3.47;;;;;;;;;;5033386;28;20084;-81
2023/06/13 07:00:46;;;;;;;7.40;3.75;;;;;;;;;;5034022;28;20353;-81
2023/06/13 07:03:12;;;;;;;4.80;3.10;;;;;;;;;;5024806;28;20049;-80
2023/06/13 07:05:38;;;;;;;4.03;3.00;;;;;;;;;;5023876;28;20091;-80
2023/06/13 07:08:04;;;;;;;5.05;3.10;;;;;;;;;;5027401;28;20050;-80
2023/06/13 07:10:30;;;;;;;3.85;3.10;;;;;;;;;;5026627;28;20429;-80
2023/06/13 07:12:57;;;;;;;4.55;3.55;;;;;;;;;;5022109;28;20507;-80
2023/06/13 07:15:23;;;;;;;5.05;3.30;;;;;;;;;;5026142;28;20050;-80
2023/06/13 07:17:50;;;;;;;6.22;3.33;;;;;;;;;;5025345;28;20037;-79
2023/06/13 07:20:16;;;;;;;6.25;3.58;;;;;;;;;;5021189;28;20046;-79
2023/06/13 07:22:42;;;;;;;4.20;3.00;;;;;;;;;;5004852;28;20050;-80
2023/06/13 07:25:08;;;;;;;4.75;3.15;;;;;;;;;;5005511;28;20104;-80
2023/06/13 07:27:34;;;;;;;5.75;3.35;;;;;;;;;;5027674;28;20046;-80
2023/06/13 07:30:00;;;;;;;3.92;3.50;;;;;;;;;;5024642;28;20038;-80
2023/06/13 07:32:26;;;;;;;3.75;2.95;;;;;;;;;;5024313;28;20049;-80
2023/06/13 07:34:53;;;;;;;4.47;3.30;;;;;;;;;;5022745;28;20063;-80
2023/06/13 07:37:19;;;;;;;6.22;3.75;;;;;;;;;;5022661;28;20042;-80
2023/06/13 07:39:45;;;;;;;5.68;3.20;;;;;;;;;;5022898;28;20504;-80
2023/06/13 07:42:12;;;;;;;11.23;3.42;;;;;;;;;;5020228;28;20535;-79
2023/06/13 07:44:41;;;;;;;4.53;2.97;;;;;;;;;;5019659;28;20068;-79
2023/06/13 07:47:07;;;;;;;4.55;3.50;;;;;;;;;;5020082;28;20045;-79
2023/06/13 07:49:33;;;;;;;5.30;3.50;;;;;;;;;;5021375;28;20073;-79
2023/06/13 07:51:59;;;;;;;5.40;3.33;;;;;;;;;;5019815;28;20049;-79
2023/06/13 07:54:25;;;;;;;5.38;3.38;;;;;;;;;;5037277;28;20041;-79
2023/06/13 07:56:52;;;;;;;6.03;3.38;;;;;;;;;;5039754;28;20360;-79
2023/06/13 07:59:18;;;;;;;5.45;3.83;;;;;;;;;;5040071;28;20049;-79
2023/06/13 08:01:44;;;;;;;4.05;3.55;;;;;;;;;;5040103;28;20089;-79
2023/06/13 08:04:10;;;;;;;5.25;3.80;;;;;;;;;;5039798;28;20045;-79
2023/06/13 08:06:36;;;;;;;5.95;3.60;;;;;;;;;;5030509;28;20954;-79
2023/06/13 08:09:04;;;;;;;7.32;4.15;;;;;;;;;;5036310;28;20476;-80
2023/06/13 08:11:30;;;;;;;8.38;4.35;;;;;;;;;;5038637;28;20045;-80
2023/06/13 08:13:56;;;;;;;5.10;3.78;;;;;;;;;;5039265;28;20053;-80
2023/06/13 08:16:24;;;;;;;4.45;3.70;;;;;;;;;;5038508;28;20049;-80
2023/06/13 08:18:50;;;;;;;4.78;3.50;;;;;;;;;;5039243;28;20440;-80
2023/06/13 08:21:16;;;;;;;4.15;3.70;;;;;;;;;;5001462;28;20046;-80
2023/06/13 08:23:43;;;;;;;5.30;3.92;;;;;;;;;;5008369;28;20475;-79
2023/06/13 08:26:09;;;;;;;4.93;3.83;;;;;;;;;;5032702;28;20121;-79
2023/06/13 08:28:35;;;;;;;5.78;3.60;;;;;;;;;;5037613;28;20504;-79
2023/06/13 08:31:02;;;;;;;5.10;4.03;;;;;;;;;;5017151;28;20416;-80
2023/06/13 08:33:28;;;;;;;4.80;3.67;;;;;;;;;;5017016;28;20089;-81
2023/06/13 08:35:54;;;;;;;5.97;3.72;;;;;;;;;;5017945;28;20053;-81
2023/06/13 08:38:22;;;;;;;6.35;3.85;;;;;;;;;;5020307;28;20054;-80
2023/06/13 08:40:48;;;;;;;8.13;3.85;;;;;;;;;;5018251;28;20053;-80
2023/06/13 08:43:14;;;;;;;6.07;4.13;;;;;;;;;;5017262;28;20089;-80
2023/06/13 08:45:40;;;;;;;6.38;3.67;;;;;;;;;;5016460;28;20057;-80
2023/06/13 08:48:07;;;;;;;5.88;3.63;;;;;;;;;;5019520;28;20046;-80
2023/06/13 08:50:33;;;;;;;6.78;3.85;;;;;;;;;;5018243;28;20381;-80
2023/06/13 08:53:00;;;;;;;6.22;3.70;;;;;;;;;;5019214;28;20045;-80
2023/06/13 08:55:27;;;;;;;8.15;4.53;;;;;;;;;;5001861;28;20053;-80
2023/06/13 08:57:54;;;;;;;7.28;4.03;;;;;;;;;;5000283;28;20077;-80
2023/06/13 09:00:24;;;;;;;5.93;3.50;;;;;;;;;;4999017;28;20042;-80
2023/06/13 09:02:50;;;;;;;4.07;3.47;;;;;;;;;;5009976;28;20435;-80
2023/06/13 09:05:17;;;;;;;5.32;3.50;;;;;;;;;;5019985;28;20103;-80
2023/06/13 09:07:44;;;;;;;5.95;3.53;;;;;;;;;;5034145;28;20068;-80
2023/06/13 09:10:11;;;;;;;5.20;3.90;;;;;;;;;;5040299;28;20046;-80
2023/06/13 09:12:39;;;;;;;5.38;3.28;;;;;;;;;;5004123;28;20046;-80
2023/06/13 09:15:06;;;;;;;5.32;3.83;;;;;;;;;;5018504;28;20045;-81
2023/06/13 09:17:32;;;;;;;8.43;3.97;;;;;;;;;;5018462;28;20085;-81
2023/06/13 09:20:00;;;;;;;7.90;4.07;;;;;;;;;;5025991;28;20046;-81
2023/06/13 09:22:26;;;;;;;6.40;3.72;;;;;;;;;;5040602;28;20411;-81
2023/06/13 09:24:53;;;;;;;7.38;3.70;;;;;;;;;;5035936;28;20119;-80
2023/06/13 09:27:19;;;;;;;6.32;3.80;;;;;;;;;;5018606;28;20042;-80
2023/06/13 09:29:49;;;;;;;5.30;3.95;;;;;;;;;;5018466;28;20050;-81
2023/06/13 09:32:15;;;;;;;6.03;3.92;;;;;;;;;;5022048;28;20097;-80
2023/06/13 09:34:42;;;;;;;6.20;4.15;;;;;;;;;;5022647;28;20073;-80
2023/06/13 09:37:08;;;;;;;4.90;3.25;;;;;;;;;;5022606;28;20050;-80
2023/06/13 09:39:36;;;;;;;7.82;3.55;;;;;;;;;;5022775;28;20046;-80
2023/06/13 09:42:02;;;;;;;7.88;3.40;;;;;;;;;;5022665;28;20081;-80
2023/06/13 09:44:33;;;;;;;5.82;3.40;;;;;;;;;;5021820;28;20507;-80
2023/06/13 09:47:00;;;;;;;9.70;3.38;;;;;;;;;;5022528;28;20408;-80
2023/06/13 09:49:30;;;;;;;4.68;3.60;;;;;;;;;;5022170;28;20407;-80
2023/06/13 09:51:58;;;;;;;7.30;3.78;;;;;;;;;;5019099;28;20103;-80
2023/06/13 09:54:24;;;;;;;7.65;3.70;;;;;;;;;;5001557;28;20101;-80
2023/06/13 09:56:50;;;;;;;6.93;3.78;;;;;;;;;;5019080;28;20049;-80
2023/06/13 09:59:19;;;;;;;9.85;4.10;;;;;;;;;;5019810;28;20126;-80
2023/06/13 10:01:47;;;;;;;6.75;3.60;;;;;;;;;;5022117;28;20046;-79
2023/06/13 10:04:13;;;;;;;6.35;3.80;;;;;;;;;;5021676;28;20084;-79
2023/06/13 10:06:39;;;;;;;6.78;3.40;;;;;;;;;;5021197;28;20373;-79
2023/06/13 10:09:05;;;;;;;6.40;3.72;;;;;;;;;;5021689;28;20467;-79
2023/06/13 10:11:36;;;;;;;7.57;4.30;;;;;;;;;;5022440;28;20054;-79
2023/06/13 10:14:10;;;;;;;10.52;3.53;;;;;;;;;;5022039;28;20081;-79
2023/06/13 10:16:39;;;;;;;10.15;4.00;;;;;;;;;;5023613;28;20042;-79
2023/06/13 10:19:05;;;;;;;7.57;3.85;;;;;;;;;;5022408;28;20041;-79
2023/06/13 10:21:33;;;;;;;8.35;3.75;;;;;;;;;;5021609;28;20171;-79
2023/06/13 10:24:00;;;;;;;8.32;3.90;;;;;;;;;;5042976;28;20046;-79
2023/06/13 10:26:29;;;;;;;8.55;3.38;;;;;;;;;;5047179;28;20052;-79
2023/06/13 10:29:08;;;;;;;7.13;3.40;;;;;;;;;;5037136;28;20377;-79
2023/06/13 10:31:46;;;;;;;10.13;4.05;;;;;;;;;;5027800;28;20045;-79
2023/06/13 10:34:34;;;;;;;6.72;3.75;;;;;;;;;;5026860;28;20104;-79
2023/06/13 10:37:19;;;;;;;4.97;2.80;;;;;;;;;;5026063;28;20052;-79
2023/06/13 10:39:48;;;;;;;5.88;3.28;;;;;;;;;;5030435;28;20042;-79
2023/06/13 10:42:28;;;;;;;6.35;2.92;;;;;;;;;;5028384;28;20050;-79
2023/06/13 10:44:59;;;;;;;6.85;3.33;;;;;;;;;;5037649;28;20041;-79
2023/06/13 10:47:28;;;;;;;6.13;3.08;;;;;;;;;;5048919;28;20053;-79
2023/06/13 10:49:54;;;;;;;6.45;3.28;;;;;;;;;;5049671;28;20080;-79
2023/06/13 10:52:20;;;;;;;7.35;3.05;;;;;;;;;;5048706;28;20045;-79
2023/06/13 10:54:53;;;;;;;10.07;2.97;;;;;;;;;;5049028;28;20041;-79
2023/06/13 10:57:19;;;;;;;8.20;4.03;;;;;;;;;;5047959;28;20049;-79
2023/06/13 10:59:47;;;;;;;8.43;2.80;;;;;;;;;;5027179;28;20069;-80
2023/06/13 11:02:17;;;;;;;6.47;3.20;;;;;;;;;;5026912;28;20085;-80
2023/06/13 11:04:49;;;;;;;7.68;3.20;;;;;;;;;;5028192;28;20048;-80
2023/06/13 11:07:22;;;;;;;6.05;2.90;;;;;;;;;;5028296;28;20045;-81
2023/06/13 11:10:15;;;;;;;4.50;2.40;;;;;;;;;;5027877;28;20058;-80
2023/06/13 11:12:42;;;;;;;5.45;2.50;;;;;;;;;;5028036;28;20081;-80
2023/06/13 11:15:24;;;;;;;5.65;2.92;;;;;;;;;;5028293;28;20365;-80
2023/06/13 11:18:09;;;;;;;6.43;2.80;;;;;;;;;;5037308;28;20100;-80
2023/06/13 11:20:46;;;;;;;6.53;2.70;;;;;;;;;;5026954;28;20431;-80
2023/06/13 11:23:37;;;;;;;4.13;2.60;;;;;;;;;;5025167;28;20054;-79
2023/06/13 11:26:04;;;;;;;4.13;2.47;;;;;;;;;;5025564;28;20045;-79
2023/06/13 11:28:30;;;;;;;6.75;3.05;;;;;;;;;;5025531;28;20045;-79
2023/06/13 11:30:58;;;;;;;6.95;3.00;;;;;;;;;;5023252;28;20050;-79
2023/06/13 11:33:27;;;;;;;6.20;2.90;;;;;;;;;;5021642;28;20109;-80
2023/06/13 11:35:57;;;;;;;8.27;2.63;;;;;;;;;;5023990;28;20072;-80
2023/06/13 11:38:35;;;;;;;6.03;2.65;;;;;;;;;;5025574;28;20154;-80
2023/06/13 11:41:01;;;;;;;3.42;2.45;;;;;;;;;;5024404;28;20037;-80
2023/06/13 11:43:28;;;;;;;6.57;2.83;;;;;;;;;;5025150;28;20133;-80
2023/06/13 11:46:04;;;;;;;7.32;2.92;;;;;;;;;;5043853;28;20037;-80
2023/06/13 11:48:30;;;;;;;6.78;3.10;;;;;;;;;;5005637;28;20050;-80
2023/06/13 11:51:09;;;;;;;8.18;3.17;;;;;;;;;;5005859;28;20081;-80
2023/06/13 11:53:46;;;;;;;5.22;2.88;;;;;;;;;;5003514;28;20057;-80
2023/06/13 11:56:12;;;;;;;4.93;2.88;;;;;;;;;;5015869;28;20056;-80
2023/06/13 11:58:38;;;;;;;7.47;3.15;;;;;;;;;;5044236;28;20045;-80
2023/06/13 12:01:05;;;;;;;4.85;2.75;;;;;;;;;;5040153;28;20049;-80
2023/06/13 12:03:37;;;;;;;7.07;3.13;;;;;;;;;;5011210;28;20046;-80
2023/06/13 12:06:06;;;;;;;6.80;3.05;;;;;;;;;;5022947;28;20124;-80
2023/06/13 12:08:35;;;;;;;6.88;2.83;;;;;;;;;;5025030;28;20077;-80
2023/06/13 12:11:11;;;;;;;5.90;3.00;;;;;;;;;;5029324;28;20041;-80
2023/06/13 12:13:37;;;;;;;6.63;2.90;;;;;;;;;;5043118;28;20041;-80
2023/06/13 12:16:04;;;;;;;6.20;3.05;;;;;;;;;;5042126;28;20064;-80
2023/06/13 12:18:30;;;;;;;5.25;2.83;;;;;;;;;;5024290;28;20052;-80
2023/06/13 12:20:58;;;;;;;7.80;3.22;;;;;;;;;;5023203;28;20050;-80
2023/06/13 12:23:24;;;;;;;4.75;2.80;;;;;;;;;;5022935;28;20062;-80
2023/06/13 12:25:51;;;;;;;7.28;3.08;;;;;;;;;;5026132;28;20626;-80
2023/06/13 12:28:18;;;;;;;8.93;3.50;;;;;;;;;;5039996;28;20041;-79
2023/06/13 12:30:45;;;;;;;7.13;3.03;;;;;;;;;;5020539;28;20076;-79
2023/06/13 12:33:14;;;;;;;6.05;3.20;;;;;;;;;;5011590;28;20082;-79
2023/06/13 12:35:53;;;;;;;7.78;3.10;;;;;;;;;;4998095;28;20053;-79
2023/06/13 12:38:20;;;;;;;9.60;3.45;;;;;;;;;;4997385;28;20046;-79
2023/06/13 12:40:51;;;;;;;9.25;3.17;;;;;;;;;;4999114;28;20060;-80
2023/06/13 12:43:18;;;;;;;5.70;3.42;;;;;;;;;;5017120;28;20056;-80
2023/06/13 12:45:45;;;;;;;6.63;3.53;;;;;;;;;;5018003;28;20412;-82
2023/06/13 12:48:18;;;;;;;6.22;2.90;;;;;;;;;;5017592;28;20061;-82
2023/06/13 12:50:44;;;;;;;7.72;3.03;;;;;;;;;;5032104;28;20518;-81
2023/06/13 12:53:10;;;;;;;8.30;3.20;;;;;;;;;;5018731;28;20049;-81
2023/06/13 12:55:38;;;;;;;7.57;3.35;;;;;;;;;;5016441;28;20496;-82
2023/06/13 12:58:22;;;;;;;7.65;3.80;;;;;;;;;;5018754;28;20057;-82
2023/06/13 13:00:52;;;;;;;6.53;3.58;;;;;;;;;;5017298;28;20042;-82
2023/06/13 13:03:19;;;;;;;6.50;3.10;;;;;;;;;;5017726;28;20141;-82
2023/06/13 13:05:45;;;;;;;6.95;3.08;;;;;;;;;;5032234;28;20479;-82
2023/06/13 13:08:11;;;;;;;7.47;3.30;;;;;;;;;;5038713;28;20134;-82
2023/06/13 13:10:37;;;;;;;6.40;3.35;;;;;;;;;;5032736;28;20045;-82
2023/06/13 13:13:07;;;;;;;10.82;3.85;;;;;;;;;;5017644;28;20061;-82
2023/06/13 13:15:33;;;;;;;6.50;3.33;;;;;;;;;;5018949;28;20045;-82
2023/06/13 13:17:59;;;;;;;8.70;4.00;;;;;;;;;;5013574;28;20118;-82
2023/06/13 13:20:26;;;;;;;10.13;3.72;;;;;;;;;;5013179;28;20037;-82
2023/06/13 13:22:52;;;;;;;6.30;3.42;;;;;;;;;;5037255;28;20067;-82
2023/06/13 13:25:18;;;;;;;6.32;3.53;;;;;;;;;;5033900;28;20129;-82
2023/06/13 13:27:46;;;;;;;7.78;3.85;;;;;;;;;;5013619;28;20046;-82
2023/06/13 13:30:13;;;;;;;9.07;4.03;;;;;;;;;;5013079;28;20125;-82
2023/06/13 13:32:39;;;;;;;8.02;3.58;;;;;;;;;;5017565;28;20065;-82
2023/06/13 13:35:06;;;;;;;6.93;3.40;;;;;;;;;;5023709;28;20057;-82
2023/06/13 13:37:32;;;;;;;7.30;3.63;;;;;;;;;;4997825;28;20058;-82
2023/06/13 13:39:59;;;;;;;7.25;3.85;;;;;;;;;;4992931;28;20050;-82
2023/06/13 13:42:25;;;;;;;6.10;3.40;;;;;;;;;;5018830;28;20070;-82
2023/06/13 13:44:51;;;;;;;7.75;3.00;;;;;;;;;;5018947;28;20073;-82
2023/06/13 13:47:17;;;;;;;7.47;3.30;;;;;;;;;;5012393;28;20043;-82
2023/06/13 13:49:43;;;;;;;9.38;3.40;;;;;;;;;;5008364;28;20076;-82
2023/06/13 13:52:09;;;;;;;9.43;3.67;;;;;;;;;;5036452;28;20041;-82
2023/06/13 13:54:35;;;;;;;7.22;3.20;;;;;;;;;;5039181;28;20072;-82
2023/06/13 13:57:03;;;;;;;5.43;3.00;;;;;;;;;;5037498;28;20050;-82
2023/06/13 13:59:29;;;;;;;6.13;3.53;;;;;;;;;;5038026;28;20099;-82
2023/06/13 14:01:55;;;;;;;8.60;4.10;;;;;;;;;;5030972;28;20189;-82
2023/06/13 14:04:21;;;;;;;8.77;3.60;;;;;;;;;;5019268;28;20384;-84
2023/06/13 14:06:48;;;;;;;7.43;3.47;;;;;;;;;;5015977;28;20373;-80
2023/06/13 14:09:16;;;;;;;7.72;3.30;;;;;;;;;;5006023;28;20128;-82
2023/06/13 14:11:42;;;;;;;4.57;3.22;;;;;;;;;;5003289;28;20057;-82
2023/06/13 14:14:08;;;;;;;5.00;3.35;;;;;;;;;;5003590;28;20389;-82
2023/06/13 14:16:34;;;;;;;5.25;3.20;;;;;;;;;;5018929;28;20629;-82
2023/06/13 14:19:00;;;;;;;6.53;3.50;;;;;;;;;;5017286;28;20046;-80
2023/06/13 14:21:26;;;;;;;6.50;3.40;;;;;;;;;;5023083;28;20072;-80
2023/06/13 14:23:55;;;;;;;7.22;3.70;;;;;;;;;;5024244;28;20073;-80
2023/06/13 14:26:24;;;;;;;8.80;3.38;;;;;;;;;;5023700;28;20046;-81
2023/06/13 14:28:51;;;;;;;6.68;3.33;;;;;;;;;;5022038;28;20038;-81
2023/06/13 14:31:17;;;;;;;9.48;3.35;;;;;;;;;;5022110;28;20041;-81
2023/06/13 14:33:43;;;;;;;5.72;3.38;;;;;;;;;;5028901;28;20176;-81
2023/06/13 14:36:10;;;;;;;6.65;3.45;;;;;;;;;;5033417;28;20042;-81
2023/06/13 14:38:41;;;;;;;5.93;3.47;;;;;;;;;;5024986;28;20099;-79
2023/06/13 14:41:08;;;;;;;5.40;3.40;;;;;;;;;;5018408;28;20054;-82
2023/06/13 14:43:34;;;;;;;6.85;3.85;;;;;;;;;;5027008;28;20069;-81
2023/06/13 14:46:01;;;;;;;9.13;3.50;;;;;;;;;;5026358;28;20048;-81